Time;durP1;ratioP1;P1;durP2;ratioP2;P2;SDS_P1;SDS_P2;PMS_P1;PMS_P2;Temp;Humidity;BMP_temperature;BMP_pressure;BME280_temperature;BME280_humidity;BME280_pressure;Samples;Min_cycle;Max_cycle;Signal;HPM_P1;HPM_P2
2021/10/09 00:00:29;;;;;;;25.45;5.93;;;10.00;48.80;;;;;;5067552;28;19931;-78
2021/10/09 00:02:54;;;;;;;;;;;9.90;48.70;;;;;;5067916;28;20048;-79
2021/10/09 00:05:20;;;;;;;14.55;5.18;;;10.00;48.30;;;;;;5067869;28;20399;-78
2021/10/09 00:07:46;;;;;;;;;;;9.90;48.40;;;;;;5066762;28;20033;-78
2021/10/09 00:10:13;;;;;;;15.13;4.80;;;9.90;48.30;;;;;;5067298;28;19914;-79
2021/10/09 00:12:39;;;;;;;21.50;6.07;;;9.90;48.50;;;;;;5067463;28;20028;-79
2021/10/09 00:15:05;;;;;;;;;;;9.90;48.20;;;;;;5067792;28;20035;-78
2021/10/09 00:17:31;;;;;;;21.10;5.40;;;9.90;48.20;;;;;;5065939;28;20434;-78
2021/10/09 00:19:56;;;;;;;;;;;9.90;47.80;;;;;;5067937;28;20127;-78
2021/10/09 00:22:22;;;;;;;19.65;6.35;;;9.80;48.40;;;;;;5067420;28;19912;-78
2021/10/09 00:24:48;;;;;;;22.80;6.18;;;9.80;48.10;;;;;;5067212;28;20060;-79
2021/10/09 00:27:13;;;;;;;;;;;9.80;48.20;;;;;;5066337;28;20142;-78
2021/10/09 00:29:39;;;;;;;13.80;5.05;;;9.70;48.20;;;;;;5065629;28;19912;-78
2021/10/09 00:32:05;;;;;;;;;;;9.70;48.30;;;;;;5066295;28;20028;-77
2021/10/09 00:34:31;;;;;;;15.45;5.63;;;9.90;47.50;;;;;;5067152;28;19908;-79
2021/10/09 00:36:56;;;;;;;;;;;9.80;47.80;;;;;;5067432;28;20516;-79
2021/10/09 00:39:22;;;;;;;19.95;5.45;;;9.80;47.60;;;;;;5067140;28;19905;-78
2021/10/09 00:41:47;;;;;;;;;;;9.80;47.90;;;;;;5067135;28;20028;-79
2021/10/09 00:44:16;;;;;;;18.40;4.93;;;9.70;47.70;;;;;;5066705;28;19950;-78
2021/10/09 00:46:43;;;;;;;16.38;4.80;;;9.80;47.40;;;;;;5065869;28;20032;-78
2021/10/09 00:49:15;;;;;;;20.42;5.78;;;9.80;47.70;;;;;;5065290;28;20525;-78
2021/10/09 00:51:46;;;;;;;11.20;5.13;;;9.80;47.30;;;;;;5065383;28;20783;-79
2021/10/09 00:54:14;;;;;;;18.50;4.53;;;9.70;48.10;;;;;;5065175;28;20595;-78
2021/10/09 00:56:41;;;;;;;13.75;5.95;;;9.70;47.50;;;;;;5066695;28;20511;-79
2021/10/09 00:59:12;;;;;;;14.07;4.95;;;9.70;47.50;;;;;;5064540;28;20048;-79
2021/10/09 01:01:39;;;;;;;15.13;4.70;;;9.60;47.80;;;;;;5065111;28;20028;-79
2021/10/09 01:04:06;;;;;;;18.65;4.70;;;9.70;47.70;;;;;;5066853;28;20025;-78
2021/10/09 01:06:32;;;;;;;16.50;4.63;;;9.60;47.30;;;;;;5065141;28;20732;-79
2021/10/09 01:08:59;;;;;;;;;;;9.70;47.40;;;;;;5067513;28;20021;-79
2021/10/09 01:11:24;;;;;;;14.25;4.75;;;9.70;47.60;;;;;;5066669;28;20007;-79
2021/10/09 01:13:50;;;;;;;;;;;9.70;47.50;;;;;;5067216;28;20092;-79
2021/10/09 01:16:27;;;;;;;12.95;4.20;;;9.70;47.60;;;;;;5068021;28;19955;-79
2021/10/09 01:18:54;;;;;;;16.20;4.40;;;9.70;47.10;;;;;;5064877;28;20158;-79
2021/10/09 01:21:21;;;;;;;14.57;3.78;;;9.70;47.20;;;;;;5065299;28;20025;-79
2021/10/09 01:23:48;;;;;;;11.68;5.15;;;9.60;47.90;;;;;;5065528;28;20032;-79
2021/10/09 01:26:13;;;;;;;16.92;5.60;;;9.60;47.70;;;;;;5066107;28;20025;-80
2021/10/09 01:28:40;;;;;;;;;;;9.50;47.70;;;;;;5066850;28;20024;-79
2021/10/09 01:31:05;;;;;;;18.30;4.40;;;9.50;48.20;;;;;;5066367;28;19908;-78
2021/10/09 01:33:31;;;;;;;;;;;9.40;48.00;;;;;;5065110;28;20050;-78
2021/10/09 01:35:57;;;;;;;12.23;4.45;;;9.40;47.70;;;;;;5065149;28;20373;-77
2021/10/09 01:38:27;;;;;;;14.88;4.68;;;9.50;47.70;;;;;;5064645;28;20025;-79
2021/10/09 01:40:54;;;;;;;12.68;4.97;;;9.40;48.20;;;;;;5065414;28;20036;-78
2021/10/09 01:43:22;;;;;;;20.02;4.22;;;9.50;48.00;;;;;;5066226;28;20107;-78
2021/10/09 01:45:48;;;;;;;17.67;5.28;;;9.40;48.30;;;;;;5066800;28;20086;-78
2021/10/09 01:48:14;;;;;;;;;;;9.40;48.20;;;;;;5065271;28;20074;-78
2021/10/09 01:50:41;;;;;;;20.13;4.13;;;9.30;48.00;;;;;;5066135;28;19963;-77
2021/10/09 01:53:07;;;;;;;10.93;3.97;;;9.40;47.90;;;;;;5066154;28;20131;-78
2021/10/09 01:55:37;;;;;;;13.77;5.00;;;9.50;47.60;;;;;;5065773;28;20074;-78
2021/10/09 01:58:04;;;;;;;24.52;4.90;;;9.40;47.90;;;;;;5064756;28;20025;-78
2021/10/09 02:00:31;;;;;;;18.55;5.00;;;9.30;48.30;;;;;;5064927;28;20107;-78
2021/10/09 02:03:02;;;;;;;12.52;4.05;;;9.30;48.40;;;;;;5066328;28;20421;-77
2021/10/09 02:05:28;;;;;;;22.60;4.25;;;9.30;48.40;;;;;;5066420;28;20656;-78
2021/10/09 02:07:55;;;;;;;18.35;4.25;;;9.40;47.60;;;;;;5063111;28;20040;-76
2021/10/09 02:10:20;;;;;;;19.95;4.22;;;9.40;47.70;;;;;;5060484;28;20505;-77
2021/10/09 02:12:46;;;;;;;;;;;9.30;48.50;;;;;;5064362;28;20041;-76
2021/10/09 02:15:16;;;;;;;13.75;3.97;;;9.20;49.50;;;;;;5059966;28;19928;-77
2021/10/09 02:25:49;;;;;;;17.38;4.82;;;8.60;52.40;;;;;;5063599;28;20043;-76
2021/10/09 02:28:18;;;;;;;14.23;4.00;;;8.50;52.70;;;;;;5062718;28;20060;-75
2021/10/09 02:30:44;;;;;;;14.18;4.22;;;8.40;53.30;;;;;;5063867;28;20101;-77
2021/10/09 02:33:10;;;;;;;21.60;5.22;;;8.30;53.80;;;;;;5066938;28;20533;-76
2021/10/09 02:35:36;;;;;;;17.40;4.85;;;8.20;54.10;;;;;;5068125;28;20036;-77
2021/10/09 02:38:03;;;;;;;22.27;5.45;;;8.10;54.70;;;;;;5061315;28;20173;-76
2021/10/09 02:40:29;;;;;;;23.52;3.83;;;8.00;54.20;;;;;;5066709;28;20079;-76
2021/10/09 02:42:55;;;;;;;15.20;4.70;;;8.00;54.90;;;;;;5066839;28;20064;-78
2021/10/09 02:45:21;;;;;;;9.45;3.97;;;7.90;55.00;;;;;;5068095;28;20033;-78
2021/10/09 02:47:46;;;;;;;12.18;4.13;;;8.00;52.80;;;;;;5067614;28;20119;-78
2021/10/09 02:50:16;;;;;;;14.55;3.90;;;8.40;51.60;;;;;;5068989;28;20036;-78
2021/10/09 02:52:42;;;;;;;11.13;3.40;;;8.60;51.30;;;;;;5069341;28;20106;-78
2021/10/09 02:55:08;;;;;;;13.52;4.38;;;8.70;51.10;;;;;;5067840;28;20033;-78
2021/10/09 02:57:36;;;;;;;20.35;3.45;;;8.80;50.60;;;;;;5068741;28;20036;-78
2021/10/09 03:00:03;;;;;;;15.73;4.85;;;8.90;50.10;;;;;;5067746;28;20067;-78
2021/10/09 03:02:28;;;;;;;14.20;3.92;;;8.90;49.90;;;;;;5068991;28;20089;-78
2021/10/09 03:04:54;;;;;;;7.97;3.53;;;9.00;49.70;;;;;;5068802;28;20021;-79
2021/10/09 03:07:19;;;;;;;;;;;9.00;49.80;;;;;;5068963;28;20036;-77
2021/10/09 03:09:45;;;;;;;11.55;4.03;;;9.00;50.20;;;;;;5068825;28;19950;-77
2021/10/09 03:12:11;;;;;;;12.63;3.50;;;9.00;49.70;;;;;;5068550;28;20040;-78
2021/10/09 03:14:36;;;;;;;15.52;4.25;;;9.10;49.70;;;;;;5068687;28;20089;-77
2021/10/09 03:17:02;;;;;;;10.90;3.70;;;9.10;49.70;;;;;;5068500;28;20047;-77
2021/10/09 03:19:27;;;;;;;;;;;9.20;49.30;;;;;;5069280;28;20020;-78
2021/10/09 03:21:53;;;;;;;11.30;3.70;;;9.20;49.00;;;;;;5068153;28;20340;-78
2021/10/09 03:24:19;;;;;;;16.42;3.60;;;9.10;48.90;;;;;;5067131;28;20029;-78
2021/10/09 03:26:44;;;;;;;;;;;9.20;49.40;;;;;;5068602;28;20064;-78
2021/10/09 03:29:10;;;;;;;10.45;3.40;;;9.10;49.30;;;;;;5066771;28;19999;-78
2021/10/09 03:31:35;;;;;;;;;;;9.20;49.10;;;;;;5068999;28;20041;-78
2021/10/09 03:34:01;;;;;;;16.35;4.72;;;9.20;49.30;;;;;;5068548;28;20369;-78
2021/10/09 03:36:26;;;;;;;11.27;3.05;;;9.10;49.60;;;;;;5068151;28;20044;-78
2021/10/09 03:38:52;;;;;;;;;;;9.10;49.50;;;;;;5068579;28;20036;-78
2021/10/09 03:41:17;;;;;;;17.35;4.88;;;9.00;49.60;;;;;;5068113;28;19908;-78
2021/10/09 03:43:44;;;;;;;16.05;3.53;;;9.00;49.50;;;;;;5066370;28;20447;-78
2021/10/09 03:53:59;;;;;;;20.73;3.80;;;9.10;49.60;;;;;;5056867;28;20489;-78
2021/10/09 03:56:24;;;;;;;;;;;9.00;49.90;;;;;;5066819;28;20037;-79
2021/10/09 03:58:50;;;;;;;8.48;3.45;;;9.00;49.60;;;;;;5067607;28;19958;-77
2021/10/09 04:01:15;;;;;;;;;;;9.10;49.60;;;;;;5067275;28;20514;-78
2021/10/09 04:03:41;;;;;;;9.93;3.67;;;9.00;49.70;;;;;;5066527;28;19908;-78
2021/10/09 04:06:07;;;;;;;15.10;4.15;;;8.90;50.00;;;;;;5067204;28;20024;-77
2021/10/09 04:08:32;;;;;;;;;;;8.90;49.80;;;;;;5067772;28;20390;-79
2021/10/09 04:10:59;;;;;;;14.10;3.38;;;8.90;50.20;;;;;;5067637;28;20361;-77
2021/10/09 04:13:24;;;;;;;15.10;3.08;;;8.90;49.90;;;;;;5065881;28;20028;-79
2021/10/09 04:15:50;;;;;;;10.63;3.65;;;9.00;49.70;;;;;;5067734;28;20043;-78
2021/10/09 04:18:15;;;;;;;12.68;3.35;;;9.10;49.90;;;;;;5065567;28;20028;-79
2021/10/09 04:20:41;;;;;;;11.45;3.30;;;8.90;50.20;;;;;;5067479;28;20071;-78
2021/10/09 04:23:07;;;;;;;;;;;8.90;50.30;;;;;;5067796;28;20025;-78
2021/10/09 04:25:32;;;;;;;11.98;3.17;;;8.80;50.40;;;;;;5067213;28;19950;-79
2021/10/09 04:27:58;;;;;;;10.95;3.30;;;8.90;50.30;;;;;;5067189;28;20036;-79
2021/10/09 04:30:24;;;;;;;14.60;3.70;;;8.90;50.10;;;;;;5066974;28;20067;-79
2021/10/09 04:32:49;;;;;;;;;;;8.90;50.60;;;;;;5067678;28;20461;-78
2021/10/09 04:35:16;;;;;;;13.30;3.55;;;9.00;50.00;;;;;;5065843;28;20425;-79
2021/10/09 04:37:42;;;;;;;10.98;3.30;;;8.90;50.40;;;;;;5065626;28;20029;-78
2021/10/09 04:40:08;;;;;;;16.05;3.95;;;8.90;50.00;;;;;;5067270;28;20039;-78
2021/10/09 04:42:34;;;;;;;9.80;3.38;;;8.90;50.40;;;;;;5066107;28;20202;-78
2021/10/09 04:45:00;;;;;;;8.57;3.35;;;8.90;50.10;;;;;;5067284;28;20553;-79
2021/10/09 04:47:25;;;;;;;;;;;8.90;50.00;;;;;;5067174;28;20067;-78
2021/10/09 04:49:51;;;;;;;6.32;3.00;;;8.90;50.30;;;;;;5067204;28;20250;-77
2021/10/09 04:52:17;;;;;;;;;;;8.80;50.30;;;;;;5066567;28;20059;-79
2021/10/09 04:54:42;;;;;;;12.35;3.22;;;8.90;50.10;;;;;;5066533;28;20768;-78
2021/10/09 04:57:08;;;;;;;;;;;8.80;50.50;;;;;;5066143;28;20116;-77
2021/10/09 04:59:34;;;;;;;16.63;2.78;;;8.80;50.20;;;;;;5066623;28;20759;-78
2021/10/09 05:01:59;;;;;;;12.40;3.45;;;8.90;50.50;;;;;;5066800;28;20032;-77
2021/10/09 05:04:25;;;;;;;;;;;8.80;50.60;;;;;;5066988;28;20021;-78
2021/10/09 05:06:50;;;;;;;9.23;3.22;;;8.80;50.80;;;;;;5065357;28;19915;-79
2021/10/09 05:09:16;;;;;;;9.30;2.78;;;8.80;51.00;;;;;;5066840;28;20029;-79
2021/10/09 05:11:42;;;;;;;13.20;3.30;;;8.80;51.10;;;;;;5065198;28;20036;-79
2021/10/09 05:14:07;;;;;;;;;;;8.80;51.00;;;;;;5066244;28;20081;-79
2021/10/09 05:16:33;;;;;;;19.17;3.83;;;8.70;51.00;;;;;;5064737;28;19969;-79
2021/10/09 05:18:58;;;;;;;16.98;3.72;;;8.70;51.20;;;;;;5065541;28;20033;-78
2021/10/09 05:21:24;;;;;;;9.63;3.17;;;8.60;51.90;;;;;;5066825;28;20041;-78
2021/10/09 05:23:50;;;;;;;;;;;8.60;52.00;;;;;;5066691;28;20029;-77
2021/10/09 05:26:16;;;;;;;10.95;2.92;;;8.60;51.70;;;;;;5064762;28;19954;-78
2021/10/09 05:31:12;;;;;;;13.30;3.50;;;8.70;52.30;;;;;;5066229;28;19943;-78
2021/10/09 05:33:39;;;;;;;12.50;3.38;;;8.60;52.40;;;;;;5066330;28;20517;-79
2021/10/09 05:36:06;;;;;;;16.60;3.33;;;8.60;52.20;;;;;;5066652;28;20055;-78
2021/10/09 05:38:32;;;;;;;8.95;3.30;;;8.70;51.90;;;;;;5066008;28;20246;-78
2021/10/09 05:40:58;;;;;;;11.68;3.10;;;8.80;51.40;;;;;;5064845;28;20560;-78
2021/10/09 05:43:24;;;;;;;;;;;8.80;51.40;;;;;;5067036;28;20222;-79
2021/10/09 05:45:49;;;;;;;13.63;2.78;;;9.00;52.00;;;;;;5065041;28;19919;-78
2021/10/09 05:48:15;;;;;;;8.80;2.72;;;9.00;50.80;;;;;;5065119;28;20405;-79
2021/10/09 05:51:07;;;;;;;8.75;3.15;;;9.00;51.00;;;;;;5064930;28;20798;-79
2021/10/09 06:32:01;;;;;;;10.20;3.33;;;12.80;43.20;;;;;;5069898;28;20100;-79
2021/10/09 06:43:01;;;;;;;11.85;3.47;;;14.60;39.30;;;;;;5069180;28;20043;-79
2021/10/09 07:01:10;;;;;;;12.93;2.97;;;15.60;36.60;;;;;;5069241;28;20096;-80
2021/10/09 07:03:36;;;;;;;;;;;15.60;36.70;;;;;;5069498;28;20025;-78
2021/10/09 07:06:01;;;;;;;11.10;2.70;;;15.50;35.80;;;;;;5068424;28;19932;-80
2021/10/09 07:08:27;;;;;;;8.13;3.20;;;15.60;36.10;;;;;;5068895;28;20077;-79
2021/10/09 07:10:53;;;;;;;;;;;15.60;35.60;;;;;;5068784;28;20394;-79
2021/10/09 07:13:19;;;;;;;11.02;3.83;;;15.20;36.30;;;;;;5068900;28;19916;-80
2021/10/09 07:15:44;;;;;;;;;;;14.80;36.80;;;;;;5068083;28;20036;-79
2021/10/09 07:18:12;;;;;;;7.63;2.65;;;14.70;37.60;;;;;;5067051;28;19934;-79
2021/10/09 07:20:38;;;;;;;13.68;2.58;;;14.80;37.50;;;;;;5067617;28;20052;-78
2021/10/09 07:23:05;;;;;;;14.40;3.40;;;14.60;37.60;;;;;;5067030;28;20459;-79
2021/10/09 07:25:32;;;;;;;9.77;2.92;;;14.50;37.60;;;;;;5068259;28;20032;-79
2021/10/09 07:27:57;;;;;;;8.00;2.88;;;14.40;38.00;;;;;;5068587;28;20028;-79
2021/10/09 07:30:23;;;;;;;;;;;14.30;37.70;;;;;;5068841;28;20032;-79
2021/10/09 07:32:48;;;;;;;10.77;3.42;;;14.10;38.00;;;;;;5068683;28;19909;-78
2021/10/09 07:35:14;;;;;;;;;;;14.00;38.40;;;;;;5068775;28;20032;-78
2021/10/09 07:37:40;;;;;;;11.77;2.85;;;13.80;39.40;;;;;;5067904;28;19904;-78
2021/10/09 07:40:07;;;;;;;8.15;3.00;;;13.70;38.40;;;;;;5068116;28;20047;-78
2021/10/09 07:42:32;;;;;;;8.65;2.53;;;13.80;38.80;;;;;;5068248;28;20481;-78
2021/10/09 07:44:58;;;;;;;;;;;13.80;38.90;;;;;;5067100;28;20031;-79
2021/10/09 07:47:23;;;;;;;15.35;2.95;;;13.70;39.20;;;;;;5068266;28;20343;-78
2021/10/09 07:49:49;;;;;;;;;;;13.70;39.50;;;;;;5066894;28;20020;-78
2021/10/09 07:52:15;;;;;;;12.80;2.85;;;13.80;39.70;;;;;;5067659;28;19916;-78
2021/10/09 07:54:41;;;;;;;7.43;2.42;;;13.80;39.20;;;;;;5066418;28;20028;-78
2021/10/09 07:57:06;;;;;;;;;;;13.90;39.40;;;;;;5068076;28;20382;-79
2021/10/09 07:59:33;;;;;;;10.95;2.63;;;14.10;39.70;;;;;;5066182;28;19946;-78
2021/10/09 08:01:59;;;;;;;15.98;3.47;;;14.10;38.80;;;;;;5067790;28;20105;-77
2021/10/09 08:04:25;;;;;;;;;;;14.50;38.00;;;;;;5066529;28;20520;-79
2021/10/09 08:06:50;;;;;;;9.75;2.72;;;15.10;37.60;;;;;;5067330;28;19909;-79
2021/10/09 08:09:16;;;;;;;;;;;15.60;37.00;;;;;;5066099;28;20029;-78
2021/10/09 08:11:42;;;;;;;14.52;2.75;;;16.10;35.90;;;;;;5066373;28;19991;-78
2021/10/09 08:14:07;;;;;;;6.32;2.72;;;16.40;34.60;;;;;;5067217;28;20024;-78
2021/10/09 08:16:33;;;;;;;9.25;2.53;;;16.70;34.40;;;;;;5066125;28;20041;-79
2021/10/09 08:19:01;;;;;;;12.32;3.05;;;16.70;34.30;;;;;;5066979;28;20017;-78
2021/10/09 08:21:28;;;;;;;11.52;2.63;;;17.00;33.60;;;;;;5066841;28;20512;-78
2021/10/09 08:40:07;;;;;;;10.30;2.80;;;18.70;31.00;;;;;;5055986;28;20044;-78
2021/10/09 08:42:33;;;;;;;8.30;2.63;;;18.60;30.90;;;;;;5066973;28;20036;-78
2021/10/09 08:44:59;;;;;;;9.98;3.25;;;18.60;31.10;;;;;;5067067;28;20075;-78
2021/10/09 08:47:25;;;;;;;9.23;2.42;;;18.80;31.10;;;;;;5066569;28;20122;-78
2021/10/09 08:49:51;;;;;;;12.73;3.30;;;18.80;30.60;;;;;;5067014;28;20512;-79
2021/10/09 08:52:21;;;;;;;17.85;4.82;;;19.10;30.50;;;;;;5066381;28;20053;-79
2021/10/09 08:54:47;;;;;;;10.23;3.55;;;19.30;30.90;;;;;;5066544;28;20028;-78
2021/10/09 08:57:18;;;;;;;12.27;3.00;;;19.40;30.00;;;;;;5066993;28;20056;-79
2021/10/09 08:59:50;;;;;;;11.30;3.47;;;19.40;30.00;;;;;;5066604;28;20022;-78
2021/10/09 09:02:21;;;;;;;10.88;3.40;;;19.20;29.90;;;;;;5066294;28;20039;-78
2021/10/09 09:05:06;;;;;;;6.88;3.20;;;19.30;30.20;;;;;;5065353;28;20469;-77
2021/10/09 09:07:55;;;;;;;10.18;3.97;;;19.40;30.20;;;;;;5066438;28;20030;-76
2021/10/09 09:40:33;;;;;;;15.80;8.63;;;20.10;29.60;;;;;;5068433;28;20020;-77
2021/10/09 09:42:59;;;;;;;11.80;2.95;;;20.10;29.40;;;;;;5068683;28;20446;-77
2021/10/09 09:45:26;;;;;;;10.52;3.08;;;19.90;29.90;;;;;;5069411;28;20111;-77
2021/10/09 09:47:57;;;;;;;12.80;3.10;;;19.90;29.50;;;;;;5069900;28;20067;-78
2021/10/09 09:50:24;;;;;;;9.90;2.67;;;19.70;30.00;;;;;;5068582;28;20032;-79
2021/10/09 09:52:50;;;;;;;7.70;3.45;;;19.60;30.20;;;;;;5069623;28;20080;-78
2021/10/09 09:55:18;;;;;;;12.32;2.92;;;19.70;30.10;;;;;;5070210;28;20044;-78
2021/10/09 09:57:44;;;;;;;5.82;2.67;;;19.80;30.10;;;;;;5069031;28;20066;-77
2021/10/09 10:00:12;;;;;;;13.07;2.70;;;20.00;29.90;;;;;;5068438;28;20046;-76
2021/10/09 10:02:44;;;;;;;12.35;3.08;;;20.00;29.70;;;;;;5069970;28;20052;-77
2021/10/09 10:05:12;;;;;;;8.68;2.40;;;19.80;29.80;;;;;;5070242;28;20021;-77
2021/10/09 10:07:39;;;;;;;11.63;3.20;;;19.60;30.60;;;;;;5069959;28;20341;-77
2021/10/09 10:10:05;;;;;;;11.63;3.85;;;19.60;30.00;;;;;;5068327;28;20082;-78
2021/10/09 10:12:32;;;;;;;7.38;2.90;;;19.60;30.10;;;;;;5068345;28;20024;-78
2021/10/09 10:14:59;;;;;;;11.20;3.10;;;19.70;30.30;;;;;;5068092;28;20032;-78
2021/10/09 10:17:46;;;;;;;13.60;3.42;;;19.70;30.00;;;;;;5068605;28;20042;-77
2021/10/09 10:20:11;;;;;;;;;;;19.30;29.50;;;;;;5069532;28;20516;-77
2021/10/09 10:22:37;;;;;;;13.57;3.27;;;18.60;30.00;;;;;;5069582;28;19942;-77
2021/10/09 10:25:30;;;;;;;6.50;2.13;;;18.10;31.10;;;;;;5069418;28;20108;-78
2021/10/09 10:28:09;;;;;;;5.68;2.58;;;17.40;31.10;;;;;;5060393;28;20032;-77
2021/10/09 10:30:44;;;;;;;7.78;2.72;;;17.00;32.00;;;;;;5069204;28;20514;-77
2021/10/09 10:33:10;;;;;;;8.85;2.33;;;16.60;33.30;;;;;;5070056;28;20420;-77
2021/10/09 10:35:36;;;;;;;;;;;16.40;32.90;;;;;;5069065;28;20516;-77
2021/10/09 10:38:34;;;;;;;12.43;2.72;;;16.10;33.00;;;;;;5067742;28;19954;-78
2021/10/09 10:41:05;;;;;;;9.40;2.72;;;16.10;32.80;;;;;;5069005;28;20040;-77
2021/10/09 10:43:36;;;;;;;9.93;2.80;;;15.90;33.00;;;;;;5067927;28;20496;-76
2021/10/09 10:46:42;;;;;;;11.45;2.38;;;15.60;33.90;;;;;;5069258;28;20025;-77
2021/10/09 10:49:21;;;;;;;14.02;1.65;;;15.40;33.70;;;;;;5068419;28;20025;-78
2021/10/09 10:52:11;;;;;;;9.05;2.45;;;15.20;33.20;;;;;;5067475;28;20401;-77
2021/10/09 10:54:56;;;;;;;11.02;2.50;;;15.20;34.10;;;;;;5067649;28;20040;-78
2021/10/09 10:57:22;;;;;;;7.18;2.13;;;15.20;34.00;;;;;;5068484;28;20044;-77
2021/10/09 11:02:24;;;;;;;13.13;2.58;;;15.10;33.60;;;;;;5068974;28;19936;-79
2021/10/09 11:04:58;;;;;;;12.70;2.95;;;15.20;34.60;;;;;;5068443;28;20029;-79
2021/10/09 11:07:32;;;;;;;6.07;2.08;;;15.20;34.80;;;;;;5067502;28;20040;-79
2021/10/09 11:10:12;;;;;;;7.88;1.92;;;15.20;34.60;;;;;;5068858;28;20359;-79
2021/10/09 11:12:49;;;;;;;7.35;2.70;;;15.10;34.60;;;;;;5066996;28;20401;-80
2021/10/09 11:15:17;;;;;;;9.73;3.20;;;15.10;34.70;;;;;;5068876;28;20079;-78
2021/10/09 11:18:04;;;;;;;4.50;1.83;;;15.10;36.30;;;;;;5067203;28;20489;-79
2021/10/09 11:20:41;;;;;;;11.43;2.60;;;15.20;35.00;;;;;;5067392;28;20099;-79
2021/10/09 11:23:09;;;;;;;9.80;1.75;;;15.20;34.40;;;;;;5068395;28;20041;-79
2021/10/09 11:25:46;;;;;;;8.18;2.83;;;15.10;34.50;;;;;;5066925;28;20122;-79
2021/10/09 11:28:30;;;;;;;11.88;2.30;;;15.10;35.00;;;;;;5066663;28;20052;-78
2021/10/09 11:30:56;;;;;;;8.25;2.03;;;15.10;35.60;;;;;;5067974;28;20024;-79
2021/10/09 11:33:26;;;;;;;6.00;2.47;;;15.10;34.50;;;;;;5066705;28;20713;-80
2021/10/09 11:35:54;;;;;;;4.32;2.10;;;15.20;34.50;;;;;;5066734;28;20040;-79
2021/10/09 11:38:24;;;;;;;12.43;2.42;;;15.20;34.80;;;;;;5066443;28;20108;-79
2021/10/09 11:41:10;;;;;;;9.45;2.58;;;15.30;34.30;;;;;;5066682;28;20394;-79
2021/10/09 11:46:48;;;;;;;5.10;2.08;;;15.20;34.90;;;;;;5067944;28;20139;-79
2021/10/09 11:55:21;;;;;;;5.63;2.10;;;15.20;35.10;;;;;;5068197;28;20094;-79
2021/10/09 11:57:47;;;;;;;14.02;2.42;;;15.20;34.80;;;;;;5067964;28;20026;-79
2021/10/09 12:00:28;;;;;;;20.42;2.58;;;15.20;35.40;;;;;;5067211;28;20032;-79
2021/10/09 12:02:58;;;;;;;13.02;3.90;;;15.20;35.40;;;;;;5065654;28;20122;-80
2021/10/09 12:05:33;;;;;;;12.95;2.58;;;15.30;35.50;;;;;;5066524;28;20412;-78
2021/10/09 12:08:15;;;;;;;9.10;2.53;;;15.30;34.60;;;;;;5067374;28;20389;-79
2021/10/09 12:11:01;;;;;;;9.13;2.30;;;15.30;35.00;;;;;;5067698;28;20028;-80
2021/10/09 12:13:26;;;;;;;5.68;2.17;;;15.20;35.40;;;;;;5066061;28;20024;-79
2021/10/09 12:15:52;;;;;;;;;;;15.30;36.10;;;;;;5066554;28;20571;-80
2021/10/09 12:18:18;;;;;;;9.00;1.70;;;15.40;34.90;;;;;;5066788;28;20384;-78
2021/10/09 12:20:43;;;;;;;12.50;3.83;;;15.40;35.70;;;;;;5066156;28;20063;-79
2021/10/09 12:23:10;;;;;;;;;;;15.50;36.00;;;;;;5067771;28;20036;-79
2021/10/09 12:25:36;;;;;;;5.60;2.53;;;15.60;35.70;;;;;;5066215;28;19912;-80
2021/10/09 12:28:02;;;;;;;;;;;15.60;35.20;;;;;;5067782;28;20089;-78
2021/10/09 12:30:47;;;;;;;6.13;2.72;;;15.60;35.30;;;;;;5067465;28;19957;-80
2021/10/09 12:33:33;;;;;;;12.93;2.25;;;15.50;35.30;;;;;;5065864;28;20058;-79
2021/10/09 12:39:20;;;;;;;15.68;2.53;;;15.40;36.10;;;;;;5067351;28;20032;-79
2021/10/09 12:41:45;;;;;;;9.40;2.95;;;15.60;36.40;;;;;;5066905;28;20380;-79
2021/10/09 12:44:11;;;;;;;;;;;15.70;35.80;;;;;;5067523;28;20041;-79
2021/10/09 12:46:37;;;;;;;7.32;2.60;;;15.60;35.20;;;;;;5065866;28;20014;-79
2021/10/09 12:49:02;;;;;;;;;;;15.50;35.40;;;;;;5066254;28;20035;-80
2021/10/09 12:51:28;;;;;;;9.10;2.55;;;15.60;35.80;;;;;;5064917;28;20006;-79
2021/10/09 12:53:56;;;;;;;;;;;15.50;35.70;;;;;;5063779;28;20059;-78
2021/10/09 12:56:21;;;;;;;5.35;2.22;;;15.60;35.90;;;;;;5063263;28;19921;-79
2021/10/09 12:58:47;;;;;;;;;;;15.60;35.50;;;;;;5062654;28;20082;-78
2021/10/09 13:01:13;;;;;;;12.13;2.42;;;15.60;34.00;;;;;;5065552;28;19943;-79
2021/10/09 13:03:38;;;;;;;;;;;15.70;34.90;;;;;;5065193;28;20051;-79
2021/10/09 13:06:04;;;;;;;11.13;2.38;;;15.70;34.90;;;;;;5062963;28;20364;-78
2021/10/09 13:08:29;;;;;;;;;;;15.80;33.60;;;;;;5064765;28;20090;-78
2021/10/09 13:10:58;;;;;;;9.10;2.05;;;15.60;33.30;;;;;;5060382;28;19968;-78
2021/10/09 13:13:24;;;;;;;6.75;1.70;;;15.60;33.90;;;;;;5063702;28;20127;-78
2021/10/09 13:15:49;;;;;;;;;;;15.50;32.90;;;;;;5066097;28;20115;-80
2021/10/09 13:18:15;;;;;;;5.18;2.40;;;15.50;32.60;;;;;;5066311;28;19909;-81
2021/10/09 13:20:40;;;;;;;;;;;15.50;33.20;;;;;;5065517;28;20029;-80
2021/10/09 13:23:06;;;;;;;9.32;2.20;;;15.40;33.10;;;;;;5066875;28;19908;-79
2021/10/09 13:25:32;;;;;;;;;;;15.40;33.50;;;;;;5065628;28;20037;-80
2021/10/09 13:27:58;;;;;;;5.68;2.33;;;15.30;33.00;;;;;;5066709;28;20270;-79
2021/10/09 13:30:24;;;;;;;;;;;15.30;33.20;;;;;;5067089;28;20031;-80
2021/10/09 13:32:49;;;;;;;5.60;2.13;;;15.30;33.80;;;;;;5065346;28;19991;-79
2021/10/09 13:35:15;;;;;;;;;;;15.30;33.40;;;;;;5065157;28;20478;-79
2021/10/09 13:38:00;;;;;;;6.97;2.17;;;15.30;33.30;;;;;;5064681;28;19911;-79
2021/10/09 13:40:26;;;;;;;7.65;1.98;;;15.20;33.50;;;;;;5066641;28;20029;-80
2021/10/09 13:42:51;;;;;;;;;;;15.10;33.00;;;;;;5065688;28;20024;-79
2021/10/09 13:45:17;;;;;;;9.98;3.05;;;15.10;33.50;;;;;;5064055;28;19971;-78
2021/10/09 13:47:43;;;;;;;6.78;2.38;;;15.00;33.20;;;;;;5065381;28;20615;-78
2021/10/09 13:50:10;;;;;;;;;;;15.00;33.60;;;;;;5064918;28;20489;-79
2021/10/09 13:52:36;;;;;;;6.38;2.00;;;14.90;33.60;;;;;;5066270;28;20332;-79
2021/10/09 13:55:02;;;;;;;;;;;15.00;33.60;;;;;;5065413;28;20032;-79
2021/10/09 13:57:27;;;;;;;8.20;3.03;;;14.90;33.80;;;;;;5066668;28;19908;-78
2021/10/09 13:59:53;;;;;;;;;;;15.00;33.30;;;;;;5066484;28;20107;-79
2021/10/09 14:02:18;;;;;;;12.35;4.18;;;14.90;33.50;;;;;;5064402;28;19977;-79
2021/10/09 14:04:44;;;;;;;;;;;14.80;33.90;;;;;;5066659;28;20035;-78
2021/10/09 14:07:09;;;;;;;6.13;2.03;;;14.70;33.80;;;;;;5065960;28;19915;-78
2021/10/09 14:09:35;;;;;;;;;;;14.70;33.60;;;;;;5064860;28;20052;-80
2021/10/09 14:12:01;;;;;;;8.77;2.20;;;14.70;34.00;;;;;;5065489;28;19908;-78
2021/10/09 14:14:27;;;;;;;;;;;14.70;34.80;;;;;;5064536;28;20029;-79
2021/10/09 14:16:55;;;;;;;17.33;5.87;;;14.60;34.40;;;;;;5064379;28;19962;-79
2021/10/09 14:19:21;;;;;;;16.13;3.28;;;14.60;35.40;;;;;;5065669;28;20024;-80
2021/10/09 14:21:48;;;;;;;;;;;14.60;34.90;;;;;;5064127;28;20496;-79
2021/10/09 14:24:20;;;;;;;7.28;2.38;;;14.60;34.50;;;;;;5064769;28;19948;-79
2021/10/09 14:26:45;;;;;;;7.53;2.75;;;14.60;34.60;;;;;;5068625;28;20048;-79
2021/10/09 14:29:11;;;;;;;;;;;14.50;34.60;;;;;;5068818;28;20679;-78
2021/10/09 14:31:37;;;;;;;10.85;2.42;;;14.40;35.10;;;;;;5066958;28;19904;-79
2021/10/09 14:34:03;;;;;;;;;;;14.30;35.60;;;;;;5066635;28;20032;-78
2021/10/09 14:36:29;;;;;;;7.23;2.13;;;14.30;35.40;;;;;;5067378;28;19923;-79
2021/10/09 14:38:55;;;;;;;;;;;14.20;35.50;;;;;;5069672;28;20255;-79
2021/10/09 14:41:20;;;;;;;8.35;2.30;;;14.30;35.90;;;;;;5068070;28;19958;-79
2021/10/09 14:43:46;;;;;;;;;;;14.20;35.90;;;;;;5068401;28;20048;-79
2021/10/09 14:48:59;;;;;;;7.53;2.22;;;14.10;37.10;;;;;;5069597;28;20055;-78
2021/10/09 15:18:40;;;;;;;50.50;21.52;;;13.40;38.40;;;;;;5068936;28;21271;-78
2021/10/09 15:21:05;;;;;;;;;;;13.40;38.50;;;;;;5068559;28;20507;-80
2021/10/09 15:23:31;;;;;;;39.60;17.75;;;13.40;39.30;;;;;;5068666;28;19995;-79
2021/10/09 15:25:56;;;;;;;;;;;13.30;39.20;;;;;;5068938;28;20028;-80
2021/10/09 15:28:22;;;;;;;14.05;3.90;;;13.20;39.80;;;;;;5066565;28;19995;-80
2021/10/09 15:30:47;;;;;;;;;;;13.20;39.60;;;;;;5067582;28;20024;-80
2021/10/09 15:33:13;;;;;;;18.83;4.90;;;13.10;40.10;;;;;;5067289;28;19904;-80
2021/10/09 15:35:39;;;;;;;;;;;13.00;40.40;;;;;;5067001;28;20029;-79
2021/10/09 15:38:05;;;;;;;11.55;3.30;;;12.90;40.80;;;;;;5066049;28;19912;-79
2021/10/09 15:40:32;;;;;;;6.90;2.83;;;12.90;40.90;;;;;;5066699;28;20021;-80
2021/10/09 15:42:57;;;;;;;14.20;2.60;;;12.80;41.10;;;;;;5066819;28;20028;-80
2021/10/09 15:45:23;;;;;;;;;;;12.80;41.30;;;;;;5066628;28;20046;-80
2021/10/09 15:47:50;;;;;;;13.88;2.90;;;12.70;41.70;;;;;;5066338;28;19994;-80
2021/10/09 15:50:20;;;;;;;23.25;4.78;;;12.50;41.90;;;;;;5067744;28;20086;-80
2021/10/09 15:52:46;;;;;;;7.82;2.58;;;12.40;42.30;;;;;;5067692;28;20048;-80
2021/10/09 15:55:12;;;;;;;;;;;12.30;42.70;;;;;;5067932;28;20040;-80
2021/10/09 15:57:38;;;;;;;17.52;3.78;;;12.20;43.10;;;;;;5066178;28;19904;-80
2021/10/09 16:00:04;;;;;;;;;;;12.10;43.20;;;;;;5067787;28;20027;-81